createdAt,value
2023-02-03T00:00:16.873Z,75.72
2023-02-03T00:03:04.865Z,75.65
2023-02-03T00:05:34.571Z,75.69
2023-02-03T00:08:04.214Z,75.63
2023-02-03T00:10:34.171Z,75.73
2023-02-03T00:13:02.331Z,75.54
2023-02-03T00:15:30.284Z,75.65
2023-02-03T00:17:58.282Z,75.72
2023-02-03T00:20:26.604Z,75.66
2023-02-03T00:22:54.736Z,75.61
2023-02-03T00:25:22.563Z,75.70
2023-02-03T00:27:50.506Z,75.64
2023-02-03T00:30:18.570Z,75.67
2023-02-03T00:32:46.400Z,75.63
2023-02-03T00:35:14.257Z,75.62
2023-02-03T00:37:42.087Z,75.60
2023-02-03T00:40:10.751Z,75.67
2023-02-03T00:42:38.731Z,75.72
2023-02-03T00:45:07.068Z,75.68
2023-02-03T00:47:35.712Z,75.72
2023-02-03T00:50:05.232Z,75.74
2023-02-03T00:52:33.224Z,75.64
2023-02-03T00:55:01.058Z,75.66
2023-02-03T00:57:29.025Z,75.73
2023-02-03T00:59:58.109Z,75.88
2023-02-03T01:02:26.036Z,75.86
2023-02-03T01:04:53.978Z,75.92
2023-02-03T01:07:21.973Z,75.80
2023-02-03T01:09:50.137Z,75.88
2023-02-03T01:12:17.941Z,75.95
2023-02-03T01:14:45.776Z,75.95
2023-02-03T01:17:13.666Z,76.03
2023-02-03T01:19:41.555Z,75.86
2023-02-03T01:22:09.347Z,76.01
2023-02-03T01:24:37.282Z,76.00
2023-02-03T01:27:06.335Z,76.01
2023-02-03T01:29:34.468Z,76.02
2023-02-03T01:32:02.417Z,76.10
2023-02-03T01:34:30.533Z,76.00
2023-02-03T01:36:58.529Z,75.98
2023-02-03T01:39:27.362Z,75.95
2023-02-03T01:41:56.287Z,75.99
2023-02-03T01:44:47.720Z,76.07
2023-02-03T01:47:34.609Z,76.05
2023-02-03T01:50:08.974Z,76.17
2023-02-03T01:52:37.871Z,76.14
2023-02-03T01:55:10.332Z,76.05
2023-02-03T01:57:46.516Z,76.15
2023-02-03T02:00:15.663Z,76.16
2023-02-03T02:02:46.367Z,76.09
2023-02-03T02:05:32.764Z,75.99
2023-02-03T02:08:02.833Z,76.05
2023-02-03T02:10:31.837Z,76.05
2023-02-03T02:13:02.571Z,75.98
2023-02-03T02:15:54.642Z,76.07
2023-02-03T02:18:54.836Z,76.05
2023-02-03T02:21:46.617Z,76.04
2023-02-03T02:24:43.569Z,76.11
2023-02-03T02:27:37.661Z,76.11
2023-02-03T02:30:38.606Z,75.97
2023-02-03T02:33:15.833Z,75.93
2023-02-03T02:35:58.302Z,75.84
2023-02-03T02:38:34.884Z,75.85
2023-02-03T02:41:18.957Z,75.78
2023-02-03T02:43:57.711Z,75.72
2023-02-03T02:46:35.942Z,75.79
2023-02-03T02:49:12.064Z,75.94
2023-02-03T02:51:43.925Z,75.88
2023-02-03T02:54:18.980Z,75.86
2023-02-03T02:56:55.598Z,75.59
2023-02-03T02:59:24.751Z,75.59
2023-02-03T03:01:52.684Z,75.59
2023-02-03T03:04:27.374Z,75.61
2023-02-03T03:07:08.840Z,75.70
2023-02-03T03:09:44.996Z,75.64
2023-02-03T03:12:26.949Z,75.84
2023-02-03T03:15:07.139Z,75.85
2023-02-03T03:17:42.860Z,75.84
2023-02-03T03:20:21.207Z,75.65
2023-02-03T03:22:57.150Z,75.67
2023-02-03T03:25:31.990Z,75.70
2023-02-03T03:28:06.271Z,75.71
2023-02-03T03:30:36.908Z,75.58
2023-02-03T03:33:06.867Z,75.39
2023-02-03T03:35:41.644Z,75.38
2023-02-03T03:38:22.450Z,75.38
2023-02-03T03:40:59.228Z,75.18
2023-02-03T03:43:31.952Z,75.10
2023-02-03T03:46:28.826Z,75.13
2023-02-03T03:49:05.084Z,75.03
2023-02-03T03:51:55.042Z,75.12
2023-02-03T03:54:24.980Z,74.97
2023-02-03T03:57:01.783Z,75.14
2023-02-03T03:59:34.555Z,74.97
2023-02-03T04:02:05.053Z,74.92
2023-02-03T04:04:36.522Z,74.99
2023-02-03T04:07:04.712Z,74.96
2023-02-03T04:09:32.671Z,74.89
2023-02-03T04:12:03.450Z,74.80
2023-02-03T04:14:34.236Z,74.62
2023-02-03T04:17:02.224Z,74.48
2023-02-03T04:19:30.372Z,74.46
2023-02-03T04:21:58.456Z,74.40
2023-02-03T04:24:26.485Z,74.35
2023-02-03T04:26:54.648Z,74.45
2023-02-03T04:29:22.566Z,74.26
2023-02-03T04:31:50.577Z,74.17
2023-02-03T04:34:18.445Z,74.14
2023-02-03T04:36:46.298Z,74.23
2023-02-03T04:39:14.142Z,74.38
2023-02-03T04:41:42.028Z,74.30
2023-02-03T04:44:09.856Z,74.32
2023-02-03T04:46:37.749Z,74.17
2023-02-03T04:49:05.936Z,74.45
2023-02-03T04:51:33.755Z,74.51
2023-02-03T04:54:01.583Z,74.57
2023-02-03T04:56:29.400Z,74.87
2023-02-03T04:58:57.315Z,75.19
2023-02-03T05:01:25.418Z,75.46
2023-02-03T05:03:53.299Z,75.65
2023-02-03T05:06:26.188Z,75.98
2023-02-03T05:08:54.615Z,76.05
2023-02-03T05:11:22.817Z,76.34
2023-02-03T05:13:50.835Z,76.48
2023-02-03T05:16:18.750Z,76.70
2023-02-03T05:18:46.643Z,76.84
2023-02-03T05:21:14.549Z,77.00
2023-02-03T05:23:42.735Z,77.16
2023-02-03T05:26:10.847Z,77.22
2023-02-03T05:28:38.916Z,77.41
2023-02-03T05:31:06.928Z,77.57
2023-02-03T05:33:34.827Z,77.71
2023-02-03T05:36:02.972Z,77.69
2023-02-03T05:38:30.814Z,77.74
2023-02-03T05:41:17.171Z,77.92
2023-02-03T05:43:45.078Z,77.83
2023-02-03T05:46:13.050Z,77.90
2023-02-03T05:48:40.965Z,77.95
2023-02-03T05:51:08.871Z,78.04
2023-02-03T05:53:36.680Z,77.94
2023-02-03T05:56:04.749Z,78.05
2023-02-03T05:58:32.662Z,78.21
2023-02-03T06:01:00.527Z,78.12
2023-02-03T06:03:28.443Z,78.27
2023-02-03T06:05:56.342Z,78.37
2023-02-03T06:08:28.414Z,78.42
2023-02-03T06:11:02.165Z,78.40
2023-02-03T06:13:29.977Z,78.53
2023-02-03T06:15:57.876Z,78.55
2023-02-03T06:18:25.820Z,78.61
2023-02-03T06:20:53.698Z,78.63
2023-02-03T06:23:21.560Z,78.59
2023-02-03T06:25:52.214Z,78.58
2023-02-03T06:28:20.273Z,78.54
2023-02-03T06:30:52.165Z,78.74
2023-02-03T06:33:20.522Z,78.88
2023-02-03T06:35:48.341Z,78.95
2023-02-03T06:38:16.198Z,79.09
2023-02-03T06:40:46.943Z,78.95
2023-02-03T06:43:14.912Z,79.08
2023-02-03T06:45:46.330Z,79.16
2023-02-03T06:48:14.659Z,79.20
2023-02-03T06:50:42.657Z,79.27
2023-02-03T06:53:10.591Z,79.41
2023-02-03T06:55:38.441Z,79.31
2023-02-03T06:58:06.312Z,79.48
2023-02-03T07:00:34.179Z,79.64
2023-02-03T07:03:02.885Z,79.72
2023-02-03T07:05:31.332Z,79.71
2023-02-03T07:07:59.454Z,79.83
2023-02-03T07:10:27.546Z,79.87
2023-02-03T07:12:55.637Z,79.88
2023-02-03T07:15:23.465Z,80.06
2023-02-03T07:17:54.813Z,79.97
2023-02-03T07:20:24.023Z,79.92
2023-02-03T07:22:56.559Z,79.97
2023-02-03T07:25:25.357Z,80.13
2023-02-03T07:27:53.892Z,80.15
2023-02-03T07:30:22.284Z,80.29
2023-02-03T07:32:51.660Z,80.20
2023-02-03T07:35:20.129Z,80.20
2023-02-03T07:37:48.112Z,80.22
2023-02-03T07:40:16.298Z,80.20
2023-02-03T07:42:45.687Z,80.25
2023-02-03T07:45:16.007Z,80.26
2023-02-03T07:47:44.516Z,80.20
2023-02-03T07:50:13.013Z,80.25
2023-02-03T07:52:40.979Z,80.45
2023-02-03T07:55:09.154Z,80.38
2023-02-03T07:57:37.321Z,80.45
2023-02-03T08:00:05.535Z,80.52
2023-02-03T08:02:41.210Z,82.20
2023-02-03T08:05:10.787Z,81.81
2023-02-03T08:07:38.792Z,81.00
2023-02-03T08:10:07.436Z,80.82
2023-02-03T08:12:35.827Z,80.85
2023-02-03T08:15:04.584Z,80.94
2023-02-03T08:17:33.824Z,80.78
2023-02-03T08:20:02.290Z,80.59
2023-02-03T08:22:30.167Z,80.61
2023-02-03T08:24:57.986Z,80.68
2023-02-03T08:27:25.843Z,80.64
2023-02-03T08:29:53.720Z,80.59
2023-02-03T08:32:22.734Z,80.62
2023-02-03T08:34:51.218Z,80.47
2023-02-03T08:37:22.008Z,80.57
2023-02-03T08:39:50.092Z,80.66
2023-02-03T08:42:18.627Z,80.82
2023-02-03T08:44:46.598Z,80.90
2023-02-03T08:47:15.003Z,81.12
2023-02-03T08:49:43.038Z,81.17
2023-02-03T08:52:12.728Z,81.41
2023-02-03T08:54:40.962Z,81.64
2023-02-03T08:57:09.040Z,81.75
2023-02-03T08:59:41.742Z,81.82
2023-02-03T09:02:14.891Z,81.92
2023-02-03T09:04:43.598Z,82.00
2023-02-03T09:07:13.389Z,82.13
2023-02-03T09:09:41.286Z,82.10
2023-02-03T09:12:11.627Z,82.03
2023-02-03T09:14:39.724Z,82.08
2023-02-03T09:17:10.763Z,82.07
2023-02-03T09:19:38.617Z,82.00
2023-02-03T09:22:06.545Z,81.93
2023-02-03T09:24:34.791Z,81.97
2023-02-03T09:27:02.749Z,82.01
2023-02-03T09:29:30.642Z,81.99
2023-02-03T09:31:58.614Z,82.04
2023-02-03T09:34:26.514Z,81.88
2023-02-03T09:36:54.315Z,81.85
2023-02-03T09:39:22.120Z,81.70
2023-02-03T09:42:08.420Z,81.24
2023-02-03T09:45:00.496Z,81.38
2023-02-03T09:47:34.364Z,81.67
2023-02-03T09:50:13.301Z,81.87
2023-02-03T09:52:42.001Z,81.83
2023-02-03T09:55:33.421Z,81.95
2023-02-03T09:58:04.125Z,81.79
2023-02-03T10:00:39.940Z,81.66
2023-02-03T10:03:38.404Z,81.60
2023-02-03T10:06:25.157Z,81.63
2023-02-03T10:09:14.477Z,81.77
2023-02-03T10:11:54.488Z,81.79
2023-02-03T10:14:49.922Z,81.78
2023-02-03T10:17:26.576Z,81.74
2023-02-03T10:20:05.227Z,81.57
2023-02-03T10:22:40.135Z,81.69
2023-02-03T10:25:20.873Z,81.56
2023-02-03T10:27:49.763Z,81.62
2023-02-03T10:30:23.779Z,81.43
2023-02-03T10:32:57.643Z,81.44
2023-02-03T10:35:36.485Z,81.43
2023-02-03T10:38:09.911Z,81.45
2023-02-03T10:40:37.948Z,81.45
2023-02-03T10:43:24.606Z,81.48
2023-02-03T10:45:52.555Z,81.42
2023-02-03T10:48:22.250Z,81.31
2023-02-03T10:50:50.618Z,81.45
2023-02-03T10:53:18.388Z,81.40
2023-02-03T10:55:48.995Z,81.22
2023-02-03T10:58:27.247Z,81.24
2023-02-03T11:01:10.585Z,81.27
2023-02-03T11:03:41.911Z,81.06
2023-02-03T11:06:15.609Z,80.99
2023-02-03T11:08:46.639Z,81.12
2023-02-03T11:11:16.441Z,81.16
2023-02-03T11:13:44.560Z,81.22
2023-02-03T11:16:24.493Z,81.09
2023-02-03T11:18:54.240Z,81.07
2023-02-03T11:21:25.208Z,80.93
2023-02-03T11:23:55.893Z,80.88
2023-02-03T11:26:30.845Z,80.90
2023-02-03T11:29:01.822Z,80.86
2023-02-03T11:31:33.528Z,81.02
2023-02-03T11:34:15.214Z,80.95
2023-02-03T11:36:43.076Z,80.99
2023-02-03T11:39:19.158Z,81.01
2023-02-03T11:41:48.199Z,81.16
2023-02-03T11:44:26.320Z,81.01
2023-02-03T11:46:59.414Z,81.00
2023-02-03T11:49:49.995Z,81.18
2023-02-03T11:52:36.603Z,81.14
2023-02-03T11:55:13.247Z,81.20
2023-02-03T11:57:59.980Z,81.40
2023-02-03T12:01:09.048Z,81.27
2023-02-03T12:03:45.739Z,81.30
2023-02-03T12:06:35.113Z,81.30
2023-02-03T12:09:20.750Z,81.30
2023-02-03T12:12:15.917Z,81.35
2023-02-03T12:15:05.576Z,81.38
2023-02-03T12:17:58.128Z,81.50
2023-02-03T12:20:40.686Z,81.47
2023-02-03T12:23:08.520Z,81.53
2023-02-03T12:25:51.544Z,81.52
2023-02-03T12:28:56.991Z,81.69
2023-02-03T12:31:38.809Z,81.58
2023-02-03T12:34:15.655Z,81.72
2023-02-03T12:37:03.073Z,81.66
2023-02-03T12:39:39.456Z,81.70
2023-02-03T12:42:15.822Z,81.70
2023-02-03T12:45:00.052Z,81.74
2023-02-03T12:47:40.109Z,81.81
2023-02-03T12:50:35.381Z,81.64
2023-02-03T12:53:19.444Z,81.79
2023-02-03T12:55:50.992Z,82.15
2023-02-03T12:58:26.654Z,82.12
2023-02-03T13:00:57.198Z,82.22
2023-02-03T13:03:37.391Z,82.23
2023-02-03T13:06:43.344Z,82.28
2023-02-03T13:09:50.039Z,82.37
2023-02-03T13:12:31.628Z,82.19
2023-02-03T13:15:30.342Z,82.37
2023-02-03T13:18:15.604Z,82.18
2023-02-03T13:20:45.353Z,81.98
2023-02-03T13:23:15.263Z,82.14
2023-02-03T13:25:43.126Z,82.04
2023-02-03T13:28:41.465Z,82.27
2023-02-03T13:31:27.682Z,82.29
2023-02-03T13:34:14.026Z,82.49
2023-02-03T13:36:51.107Z,82.81
2023-02-03T13:39:46.157Z,83.01
2023-02-03T13:42:22.672Z,83.93
2023-02-03T13:45:03.142Z,82.16
2023-02-03T13:47:32.856Z,82.50
2023-02-03T13:50:06.106Z,82.92
2023-02-03T13:52:42.040Z,83.21
2023-02-03T13:55:28.608Z,83.23
2023-02-03T13:57:57.564Z,83.33
2023-02-03T14:00:43.825Z,83.11
2023-02-03T14:03:24.164Z,83.30
2023-02-03T14:05:54.695Z,82.99
2023-02-03T14:08:25.514Z,83.20
2023-02-03T14:11:30.999Z,82.83
2023-02-03T14:14:08.043Z,82.85
2023-02-03T14:16:35.855Z,82.63
2023-02-03T14:19:05.292Z,82.18
2023-02-03T14:21:46.310Z,82.16
2023-02-03T14:24:15.357Z,82.14
2023-02-03T14:26:50.533Z,82.12
2023-02-03T14:29:30.543Z,82.18
2023-02-03T14:32:02.517Z,82.06
2023-02-03T14:34:41.832Z,82.00
2023-02-03T14:37:22.026Z,81.81
2023-02-03T14:39:56.001Z,81.93
2023-02-03T14:42:49.466Z,81.71
2023-02-03T14:45:49.022Z,81.66
2023-02-03T14:48:46.167Z,81.52
2023-02-03T14:51:51.546Z,81.55
2023-02-03T14:54:25.257Z,81.62
2023-02-03T14:57:23.361Z,81.72
2023-02-03T15:00:10.846Z,81.67
2023-02-03T15:03:10.520Z,81.48
2023-02-03T15:05:49.426Z,81.60
2023-02-03T15:08:37.150Z,81.21
2023-02-03T15:11:24.878Z,81.35
2023-02-03T15:13:54.158Z,81.27
2023-02-03T15:16:24.511Z,81.05
2023-02-03T15:19:00.611Z,81.31
2023-02-03T15:21:28.497Z,81.41
2023-02-03T15:23:56.463Z,81.37
2023-02-03T15:26:26.317Z,81.40
2023-02-03T15:29:00.598Z,81.26
2023-02-03T15:31:34.112Z,81.27
2023-02-03T15:34:28.946Z,81.26
2023-02-03T15:37:01.579Z,81.28
2023-02-03T15:39:47.648Z,81.45
2023-02-03T15:42:29.563Z,81.51
2023-02-03T15:45:04.574Z,81.55
2023-02-03T15:47:38.957Z,81.85
2023-02-03T15:50:28.293Z,82.79
2023-02-03T15:53:01.315Z,82.32
2023-02-03T15:55:39.085Z,82.12
2023-02-03T15:58:07.109Z,82.04
2023-02-03T16:00:38.926Z,82.21
2023-02-03T16:03:21.585Z,82.46
2023-02-03T16:05:50.342Z,82.63
2023-02-03T16:08:42.900Z,82.74
2023-02-03T16:11:38.882Z,82.72
2023-02-03T16:14:10.257Z,82.94
2023-02-03T16:17:03.855Z,82.80
2023-02-03T16:19:38.168Z,82.75
2023-02-03T16:22:26.233Z,82.67
2023-02-03T16:24:54.073Z,82.65
2023-02-03T16:27:22.111Z,82.64
2023-02-03T16:30:08.750Z,82.54
2023-02-03T16:32:55.948Z,82.42
2023-02-03T16:35:43.307Z,82.48
2023-02-03T16:38:34.553Z,82.37
2023-02-03T16:41:28.395Z,82.33
2023-02-03T16:44:14.708Z,82.16
2023-02-03T16:47:01.911Z,82.16
2023-02-03T16:49:48.595Z,82.31
2023-02-03T16:52:16.751Z,82.24
2023-02-03T16:54:44.601Z,82.10
2023-02-03T16:57:12.458Z,81.94
2023-02-03T16:59:40.319Z,82.06
2023-02-03T17:02:10.463Z,82.07
2023-02-03T17:04:38.376Z,82.00
2023-02-03T17:07:06.277Z,82.02
2023-02-03T17:09:35.383Z,82.07
2023-02-03T17:12:03.896Z,82.10
2023-02-03T17:14:31.795Z,82.10
2023-02-03T17:16:59.705Z,82.10
2023-02-03T17:19:27.562Z,82.08
2023-02-03T17:21:56.002Z,82.19
2023-02-03T17:24:24.509Z,82.08
2023-02-03T17:37:47.540Z,81.93
2023-02-03T17:54:06.794Z,81.44
2023-02-03T17:56:35.813Z,81.44
2023-02-03T17:59:05.761Z,81.33
2023-02-03T18:01:33.888Z,81.43
2023-02-03T18:04:03.559Z,81.34
2023-02-03T18:06:35.958Z,81.24
2023-02-03T18:09:10.294Z,81.19
2023-02-03T18:11:38.390Z,81.25
2023-02-03T18:14:06.497Z,80.97
2023-02-03T18:16:36.076Z,81.03
2023-02-03T18:19:06.528Z,81.02
2023-02-03T18:21:37.915Z,80.74
2023-02-03T18:24:06.481Z,80.96
2023-02-03T18:26:37.032Z,80.74
2023-02-03T18:29:05.839Z,80.79
2023-02-03T18:31:34.047Z,80.62
2023-02-03T18:34:03.975Z,80.72
2023-02-03T18:36:33.026Z,80.64
2023-02-03T18:39:01.215Z,80.57
2023-02-03T18:41:29.510Z,80.64
2023-02-03T18:43:57.674Z,80.67
2023-02-03T18:46:30.260Z,80.88
2023-02-03T18:48:59.079Z,81.02
2023-02-03T18:51:27.605Z,80.95
2023-02-03T18:54:00.146Z,81.09
2023-02-03T18:56:38.242Z,81.21
2023-02-03T18:59:09.212Z,81.42
2023-02-03T19:01:39.005Z,81.45
2023-02-03T19:04:07.018Z,81.43
2023-02-03T19:06:36.052Z,81.50
2023-02-03T19:09:05.550Z,81.60
2023-02-03T19:11:34.036Z,81.70
2023-02-03T19:14:02.129Z,81.92
2023-02-03T19:16:30.408Z,82.02
2023-02-03T19:18:58.548Z,82.04
2023-02-03T19:21:26.623Z,82.01
2023-02-03T19:23:54.877Z,82.22
2023-02-03T19:26:22.858Z,82.18
2023-02-03T19:28:51.707Z,82.34
2023-02-03T19:31:20.031Z,82.37
2023-02-03T19:33:47.932Z,82.34
2023-02-03T19:36:16.056Z,82.32
2023-02-03T19:38:44.162Z,82.37
2023-02-03T19:41:12.630Z,82.44
2023-02-03T19:43:40.612Z,82.41
2023-02-03T19:46:08.752Z,82.36
2023-02-03T19:48:36.681Z,82.37
2023-02-03T19:51:04.668Z,82.32
2023-02-03T19:53:33.729Z,82.45
2023-02-03T19:56:01.596Z,82.36
2023-02-03T19:58:30.696Z,82.38
2023-02-03T20:00:58.597Z,82.41
2023-02-03T20:03:26.687Z,82.50
2023-02-03T20:05:55.550Z,82.48
2023-02-03T20:08:23.597Z,82.53
2023-02-03T20:10:52.427Z,82.68
2023-02-03T20:13:22.712Z,82.75
2023-02-03T20:15:50.612Z,82.73
2023-02-03T20:18:18.568Z,82.82
2023-02-03T20:20:56.694Z,83.07
2023-02-03T20:23:24.807Z,83.06
2023-02-03T20:25:53.659Z,83.19
2023-02-03T20:28:24.042Z,83.42
2023-02-03T20:30:53.948Z,83.44
2023-02-03T20:33:22.842Z,83.46
2023-02-03T20:35:50.932Z,83.56
2023-02-03T20:38:19.414Z,83.67
2023-02-03T20:40:47.267Z,83.74
2023-02-03T20:43:19.859Z,83.75
2023-02-03T20:45:49.670Z,83.66
2023-02-03T20:48:19.854Z,83.75
2023-02-03T20:50:49.509Z,83.86
2023-02-03T20:53:24.497Z,84.01
2023-02-03T20:55:57.088Z,84.05
2023-02-03T20:58:28.199Z,83.90
2023-02-03T21:00:58.964Z,83.73
2023-02-03T21:03:45.558Z,83.76
2023-02-03T21:06:16.590Z,83.76
2023-02-03T21:08:46.177Z,83.76
2023-02-03T21:11:19.457Z,83.75
2023-02-03T21:13:49.698Z,83.63
2023-02-03T21:16:27.653Z,83.85
2023-02-03T21:19:00.332Z,83.70
2023-02-03T21:21:36.602Z,83.69
2023-02-03T21:24:25.507Z,83.79
2023-02-03T21:26:53.911Z,83.87
2023-02-03T21:29:28.886Z,83.89
2023-02-03T21:31:57.258Z,83.77
2023-02-03T21:34:31.281Z,83.60
2023-02-03T21:37:12.372Z,83.76
2023-02-03T21:39:41.754Z,83.93
2023-02-03T21:42:41.469Z,83.95
2023-02-03T21:45:19.770Z,83.86
2023-02-03T21:47:49.885Z,83.89
2023-02-03T21:50:35.172Z,83.99
2023-02-03T21:53:08.862Z,83.84
2023-02-03T21:55:37.989Z,83.85
2023-02-03T21:58:30.051Z,83.97
2023-02-03T22:00:59.813Z,83.97
2023-02-03T22:03:35.421Z,84.01
2023-02-03T22:06:09.409Z,84.03
2023-02-03T22:08:46.653Z,84.02
2023-02-03T22:11:15.910Z,84.06
2023-02-03T22:13:44.491Z,84.09
2023-02-03T22:16:14.227Z,84.12
2023-02-03T22:18:42.125Z,84.02
2023-02-03T22:21:09.951Z,84.04
2023-02-03T22:23:38.810Z,84.01
2023-02-03T22:26:07.655Z,83.92
2023-02-03T22:28:36.029Z,84.06
2023-02-03T22:31:05.151Z,84.07
2023-02-03T22:33:35.002Z,84.00
2023-02-03T22:36:04.207Z,83.98
2023-02-03T22:38:33.592Z,84.09
2023-02-03T22:41:01.931Z,84.10
2023-02-03T22:43:31.196Z,84.08
2023-02-03T22:46:01.715Z,84.23
2023-02-03T22:48:30.426Z,84.23
2023-02-03T22:50:58.426Z,84.07
2023-02-03T22:53:27.450Z,84.16
2023-02-03T22:55:55.456Z,84.28
2023-02-03T22:58:23.352Z,84.32
2023-02-03T23:00:51.263Z,84.35
2023-02-03T23:03:19.212Z,84.25
2023-02-03T23:05:47.052Z,84.29
2023-02-03T23:08:14.980Z,84.31
2023-02-03T23:10:42.798Z,84.31
2023-02-03T23:13:10.688Z,84.38
2023-02-03T23:15:38.550Z,84.52
2023-02-03T23:18:06.431Z,84.56
2023-02-03T23:20:34.398Z,84.56
2023-02-03T23:23:02.243Z,84.66
2023-02-03T23:25:30.070Z,84.62
2023-02-03T23:27:58.189Z,84.75
2023-02-03T23:30:26.025Z,84.80
2023-02-03T23:32:53.858Z,84.88
2023-02-03T23:35:40.535Z,85.07
2023-02-03T23:38:08.431Z,84.99
2023-02-03T23:40:36.265Z,85.04
2023-02-03T23:43:04.053Z,84.87
2023-02-03T23:45:31.942Z,84.93
2023-02-03T23:47:59.818Z,85.12
2023-02-03T23:50:27.631Z,85.41
2023-02-03T23:52:55.435Z,84.29
2023-02-03T23:55:23.562Z,83.68
2023-02-03T23:57:51.447Z,83.66
